Time;durP1;ratioP1;P1;durP2;ratioP2;P2;SDS_P1;SDS_P2;PMS_P1;PMS_P2;Temp;Humidity;BMP_temperature;BMP_pressure;BME280_temperature;BME280_humidity;BME280_pressure;Samples;Min_cycle;Max_cycle;Signal;HPM_P1;HPM_P2
2023/03/04 00:01:17;;;;;;;6.85;2.20;;;;;;;4.35;71.98;102548.63;5028211;28;20021;-78
2023/03/04 00:03:43;;;;;;;8.75;2.28;;;;;;;4.36;72.19;102547.75;5046834;28;20035;-78
2023/03/04 00:06:08;;;;;;;7.70;2.35;;;;;;;4.37;72.36;102558.13;5054439;28;20032;-78
2023/03/04 00:08:34;;;;;;;8.57;2.00;;;;;;;4.38;71.74;102554.72;5040898;28;20077;-79
2023/03/04 00:10:59;;;;;;;8.07;1.80;;;;;;;4.37;72.29;102552.97;5061340;28;20035;-78
2023/03/04 00:13:24;;;;;;;9.45;1.70;;;;;;;4.36;72.40;102553.81;5061288;28;20032;-78
2023/03/04 00:15:51;;;;;;;8.18;1.98;;;;;;;4.37;72.20;102550.41;5057988;28;20037;-79
2023/03/04 00:18:16;;;;;;;7.55;1.65;;;;;;;4.37;72.18;102554.66;5060794;28;20021;-78
2023/03/04 00:20:42;;;;;;;6.90;1.60;;;;;;;4.36;72.17;102553.81;5059203;28;20138;-78
2023/03/04 00:23:07;;;;;;;6.85;1.50;;;;;;;4.36;72.48;102546.06;5064807;28;20376;-78
2023/03/04 00:25:32;;;;;;;7.30;1.60;;;;;;;4.37;72.27;102544.34;5060412;28;20029;-79
2023/03/04 00:27:58;;;;;;;11.65;1.55;;;;;;;4.37;72.64;102552.09;5057542;28;20032;-79
2023/03/04 00:30:23;;;;;;;8.52;1.50;;;;;;;4.36;72.15;102540.94;5052730;28;20473;-79
2023/03/04 00:32:49;;;;;;;6.25;1.65;;;;;;;4.36;72.37;102543.50;5054033;28;20477;-79
2023/03/04 00:35:14;;;;;;;6.80;1.45;;;;;;;4.37;72.63;102546.94;5057199;28;20021;-79
2023/03/04 00:37:40;;;;;;;9.17;1.70;;;;;;;4.35;72.53;102544.31;5056838;28;20447;-79
2023/03/04 00:40:06;;;;;;;7.50;1.40;;;;;;;4.35;73.04;102544.31;5054651;28;20734;-79
2023/03/04 00:42:31;;;;;;;8.90;1.60;;;;;;;4.35;72.47;102538.31;5063536;28;20033;-79
2023/03/04 00:44:57;;;;;;;6.50;1.40;;;;;;;4.34;72.56;102545.16;5053691;28;20031;-79
2023/03/04 00:47:22;;;;;;;9.93;1.87;;;;;;;4.32;72.52;102539.09;5041426;28;20116;-78
2023/03/04 00:49:47;;;;;;;5.18;1.10;;;;;;;4.32;72.98;102539.09;5053838;28;20024;-79
2023/03/04 00:52:12;;;;;;;10.38;2.35;;;;;;;4.32;73.10;102546.81;5057683;28;20031;-79
2023/03/04 00:54:38;;;;;;;6.13;1.43;;;;;;;4.31;73.15;102539.06;5065412;28;20067;-79
2023/03/04 00:57:03;;;;;;;10.10;1.60;;;;;;;4.31;72.68;102546.78;5063506;28;20050;-79
2023/03/04 00:59:28;;;;;;;10.73;2.33;;;;;;;4.31;72.28;102546.78;5061853;28;20028;-79
2023/03/04 01:01:54;;;;;;;7.72;1.60;;;;;;;4.29;72.73;102546.72;5054261;28;20495;-79
2023/03/04 01:04:19;;;;;;;6.63;1.77;;;;;;;4.31;72.35;102544.22;5059451;28;20029;-79
2023/03/04 01:06:44;;;;;;;7.77;1.43;;;;;;;4.28;72.58;102542.41;5060307;28;20044;-78
2023/03/04 01:09:09;;;;;;;5.85;1.40;;;;;;;4.27;72.55;102540.66;5057461;28;20024;-78
2023/03/04 01:11:35;;;;;;;5.38;1.30;;;;;;;4.27;72.46;102550.97;5052830;28;20086;-78
2023/03/04 01:14:00;;;;;;;7.17;1.60;;;;;;;4.27;72.72;102548.38;5067773;28;20403;-79
2023/03/04 01:16:25;;;;;;;5.00;1.40;;;;;;;4.27;72.30;102544.94;5060406;28;20062;-78
2023/03/04 01:18:50;;;;;;;6.22;1.60;;;;;;;4.27;72.08;102550.97;5062844;28;20388;-78
2023/03/04 01:21:16;;;;;;;7.37;1.50;;;;;;;4.26;72.09;102544.09;5053727;28;20013;-79
2023/03/04 01:23:41;;;;;;;7.37;1.30;;;;;;;4.24;72.15;102543.16;5053535;28;20361;-78
2023/03/04 01:26:06;;;;;;;6.50;1.37;;;;;;;4.25;71.74;102547.50;5060548;28;20025;-79
2023/03/04 01:28:34;;;;;;;4.43;1.23;;;;;;;4.23;71.88;102544.84;5055294;28;20031;-78
2023/03/04 01:31:01;;;;;;;7.33;1.17;;;;;;;4.24;72.22;102543.16;5051671;28;20021;-79
2023/03/04 01:33:26;;;;;;;5.93;1.40;;;;;;;4.25;72.33;102544.91;5060363;28;20063;-79
2023/03/04 01:35:52;;;;;;;5.18;1.55;;;;;;;4.27;72.56;102535.50;5050361;28;20052;-79
2023/03/04 01:38:17;;;;;;;10.80;1.80;;;;;;;4.28;72.60;102532.09;5038874;28;20366;-78
2023/03/04 01:40:42;;;;;;;10.70;2.00;;;;;;;4.29;72.80;102530.41;5032905;28;20028;-78
2023/03/04 01:43:31;;;;;;;4.63;1.92;;;;;;;4.29;72.45;102528.69;5054569;28;20524;-79
2023/03/04 01:45:57;;;;;;;4.03;1.40;;;;;;;4.30;72.92;102535.59;5040697;28;20060;-79
2023/03/04 01:48:29;;;;;;;6.80;1.37;;;;;;;4.31;73.06;102527.03;5054877;28;20047;-79
2023/03/04 01:50:55;;;;;;;8.43;1.40;;;;;;;4.30;73.35;102527.00;5054161;28;20046;-79
2023/03/04 01:53:23;;;;;;;3.60;1.50;;;;;;;4.30;72.78;102520.13;5059808;28;20111;-79
2023/03/04 01:55:51;;;;;;;8.70;1.37;;;;;;;4.28;73.31;102514.06;5067962;28;20020;-79
2023/03/04 01:58:17;;;;;;;7.47;1.40;;;;;;;4.28;72.63;102521.78;5061709;28;20029;-79
2023/03/04 02:00:43;;;;;;;7.22;1.40;;;;;;;4.27;72.69;102512.31;5053768;28;20591;-79
2023/03/04 02:03:14;;;;;;;7.83;1.37;;;;;;;4.28;73.22;102508.03;5056178;28;20491;-79
2023/03/04 02:05:43;;;;;;;4.72;1.33;;;;;;;4.28;73.08;102511.47;5062908;28;20078;-79
2023/03/04 02:08:09;;;;;;;5.70;1.50;;;;;;;4.28;72.91;102508.91;5056935;28;20107;-79
2023/03/04 02:10:35;;;;;;;7.33;1.50;;;;;;;4.29;72.67;102502.06;5043117;28;20035;-79
2023/03/04 02:13:01;;;;;;;6.23;1.37;;;;;;;4.27;73.38;102499.44;5059531;28;20068;-78
2023/03/04 02:15:28;;;;;;;5.27;1.20;;;;;;;4.27;73.31;102502.00;5056118;28;20546;-78
2023/03/04 02:17:53;;;;;;;7.33;1.27;;;;;;;4.25;72.89;102490.81;5038336;28;20059;-78
2023/03/04 02:20:54;;;;;;;5.70;1.33;;;;;;;4.24;73.44;102496.78;5056142;28;20041;-79
2023/03/04 02:23:27;;;;;;;8.93;1.00;;;;;;;4.25;73.35;102494.25;4977422;28;20030;-79
2023/03/04 02:26:07;;;;;;;4.27;1.07;;;;;;;4.25;73.29;102495.97;5005961;28;20360;-79
2023/03/04 02:28:32;;;;;;;7.63;1.20;;;;;;;4.22;73.36;102490.72;5070267;28;20063;-79
2023/03/04 02:30:57;;;;;;;4.67;0.77;;;;;;;4.22;73.36;102486.44;5057597;28;20021;-78
2023/03/04 02:33:23;;;;;;;4.07;1.10;;;;;;;4.22;73.51;102488.16;5057600;28;20033;-79
2023/03/04 02:35:48;;;;;;;4.13;0.97;;;;;;;4.23;73.36;102484.75;5062344;28;20028;-79
2023/03/04 02:38:13;;;;;;;6.20;1.00;;;;;;;4.22;73.24;102481.28;5038185;28;20055;-78
2023/03/04 02:40:42;;;;;;;4.63;0.90;;;;;;;4.22;73.44;102485.56;5059311;28;20035;-78
2023/03/04 02:43:10;;;;;;;4.73;0.90;;;;;;;4.23;73.35;102487.31;5052468;28;20380;-79
2023/03/04 02:45:43;;;;;;;4.67;0.90;;;;;;;4.24;73.33;102478.75;5053392;28;20078;-79
2023/03/04 02:48:09;;;;;;;5.43;1.00;;;;;;;4.22;73.47;102477.84;5050573;28;20055;-79
2023/03/04 02:50:41;;;;;;;6.43;1.20;;;;;;;4.24;73.55;102476.19;5051820;28;20025;-79
2023/03/04 02:53:07;;;;;;;5.90;1.03;;;;;;;4.23;73.34;102477.88;5048258;28;20074;-79
2023/03/04 02:55:33;;;;;;;6.43;1.03;;;;;;;4.24;73.41;102473.59;5049640;28;20025;-79
2023/03/04 02:57:58;;;;;;;3.63;0.90;;;;;;;4.25;73.38;102472.78;5049991;28;20301;-79
2023/03/04 03:00:24;;;;;;;3.15;1.00;;;;;;;4.24;74.09;102471.03;5049185;28;20025;-79
2023/03/04 03:02:49;;;;;;;6.13;1.08;;;;;;;4.25;74.07;102471.06;5051160;28;20082;-78
2023/03/04 03:05:16;;;;;;;6.05;1.08;;;;;;;4.25;73.71;102470.19;5051417;28;20025;-79
2023/03/04 03:07:41;;;;;;;6.40;1.10;;;;;;;4.25;73.78;102465.06;5050863;28;20053;-79
2023/03/04 03:10:07;;;;;;;5.33;1.00;;;;;;;4.24;73.71;102468.47;5048831;28;20067;-78
2023/03/04 03:12:32;;;;;;;4.23;0.90;;;;;;;4.22;74.20;102458.09;5049626;28;20448;-79
2023/03/04 03:14:57;;;;;;;6.30;0.80;;;;;;;4.22;74.14;102465.81;5049888;28;20032;-78
2023/03/04 03:17:22;;;;;;;6.53;1.20;;;;;;;4.22;74.00;102457.22;5037297;28;20078;-78
2023/03/04 03:19:48;;;;;;;5.90;0.77;;;;;;;4.21;73.63;102460.63;5035609;28;20415;-78
2023/03/04 03:22:13;;;;;;;7.47;0.87;;;;;;;4.21;73.73;102464.06;5054255;28;20025;-79
2023/03/04 03:24:38;;;;;;;3.92;0.80;;;;;;;4.21;73.88;102460.63;5054520;28;20480;-78
2023/03/04 03:27:03;;;;;;;5.07;0.80;;;;;;;4.20;73.93;102457.19;5054945;28;20082;-79
2023/03/04 03:29:29;;;;;;;4.95;0.85;;;;;;;4.20;73.73;102457.19;5053656;28;20040;-78
2023/03/04 03:31:55;;;;;;;3.23;1.07;;;;;;;4.21;73.83;102453.78;5054124;28;20098;-78
2023/03/04 03:34:21;;;;;;;4.73;0.80;;;;;;;4.21;74.13;102453.78;5055297;28;20116;-79
2023/03/04 03:36:46;;;;;;;5.47;0.90;;;;;;;4.21;74.37;102452.91;5037365;28;20163;-79
2023/03/04 03:39:11;;;;;;;5.95;0.90;;;;;;;4.21;74.27;102458.06;5053383;28;20028;-78
2023/03/04 03:41:36;;;;;;;2.10;0.73;;;;;;;4.20;74.27;102449.44;5053762;28;20025;-79
2023/03/04 03:44:02;;;;;;;5.97;0.97;;;;;;;4.24;74.27;102453.00;5054768;28;20032;-78
2023/03/04 03:46:28;;;;;;;3.10;1.00;;;;;;;4.22;74.75;102450.38;5054099;28;20031;-79
2023/03/04 03:48:53;;;;;;;4.68;1.00;;;;;;;4.22;74.90;102452.09;5035695;28;20021;-79
2023/03/04 03:51:19;;;;;;;2.40;0.90;;;;;;;4.22;75.24;102444.34;5051362;28;20077;-78
2023/03/04 03:53:44;;;;;;;3.30;0.63;;;;;;;4.22;75.34;102449.50;5054576;28;20071;-78
2023/03/04 03:56:09;;;;;;;6.77;0.90;;;;;;;4.22;75.43;102445.22;5052615;28;20033;-79
2023/03/04 03:58:34;;;;;;;4.85;0.80;;;;;;;4.21;75.40;102448.63;5051062;28;20021;-78
2023/03/04 04:01:00;;;;;;;4.33;0.90;;;;;;;4.22;75.13;102447.78;5050373;28;20383;-78
2023/03/04 04:03:25;;;;;;;3.25;0.70;;;;;;;4.22;75.31;102450.38;5053172;28;20021;-79
2023/03/04 04:05:50;;;;;;;3.90;1.00;;;;;;;4.22;75.43;102445.22;5049590;28;20391;-79
2023/03/04 04:08:16;;;;;;;4.23;1.23;;;;;;;4.22;75.70;102444.34;5050551;28;20542;-78
2023/03/04 04:10:43;;;;;;;4.90;0.90;;;;;;;4.23;75.58;102451.25;5048798;28;20041;-78
2023/03/04 04:13:08;;;;;;;6.03;0.98;;;;;;;4.22;75.56;102449.50;5050529;28;20032;-78
2023/03/04 04:15:35;;;;;;;6.37;1.10;;;;;;;4.22;75.93;102452.94;5053250;28;20024;-79
2023/03/04 04:18:00;;;;;;;4.17;1.10;;;;;;;4.22;75.75;102454.66;5033429;28;20024;-79
2023/03/04 04:20:26;;;;;;;3.73;1.20;;;;;;;4.21;75.41;102453.78;5031825;28;20468;-78
2023/03/04 04:22:51;;;;;;;5.35;0.95;;;;;;;4.20;75.31;102454.59;5053882;28;20031;-79
2023/03/04 04:25:16;;;;;;;6.75;0.98;;;;;;;4.19;74.53;102452.00;5051512;28;20033;-79
2023/03/04 04:27:42;;;;;;;4.27;0.90;;;;;;;4.17;73.88;102444.25;5051391;28;20045;-78
2023/03/04 04:30:07;;;;;;;4.70;1.10;;;;;;;4.16;73.54;102449.31;5049833;28;20108;-79
2023/03/04 04:32:33;;;;;;;5.20;1.07;;;;;;;4.15;73.32;102453.63;5052528;28;20078;-79
2023/03/04 04:34:58;;;;;;;7.17;0.90;;;;;;;4.16;73.44;102454.47;5051250;28;20110;-79
2023/03/04 04:37:23;;;;;;;3.80;0.77;;;;;;;4.14;73.20;102445.84;5050877;28;20476;-79
2023/03/04 04:39:50;;;;;;;6.20;1.20;;;;;;;4.16;73.52;102459.63;5046298;28;20032;-79
2023/03/04 04:42:16;;;;;;;4.33;1.00;;;;;;;4.14;73.82;102457.03;5047642;28;20028;-78
2023/03/04 04:44:41;;;;;;;6.93;1.10;;;;;;;4.13;72.40;102450.13;5050692;28;20025;-78
2023/03/04 04:47:06;;;;;;;3.57;1.03;;;;;;;4.13;73.04;102459.53;5052598;28;20033;-79
2023/03/04 04:49:32;;;;;;;9.77;1.00;;;;;;;4.13;72.92;102464.69;5048204;28;20025;-78
2023/03/04 04:51:57;;;;;;;7.07;1.50;;;;;;;4.14;72.82;102461.28;5050995;28;20033;-78
2023/03/04 04:54:23;;;;;;;4.63;0.90;;;;;;;4.10;72.66;102458.63;5050931;28;20033;-78
2023/03/04 04:56:49;;;;;;;5.57;1.00;;;;;;;4.12;72.92;102462.94;5050811;28;20036;-78
2023/03/04 04:59:14;;;;;;;4.32;0.98;;;;;;;4.13;71.67;102462.13;5051076;28;20028;-78
2023/03/04 05:01:40;;;;;;;4.03;0.93;;;;;;;4.10;72.10;102466.34;5049856;28;20132;-79
2023/03/04 05:04:05;;;;;;;5.17;1.00;;;;;;;4.12;72.37;102465.53;5050113;28;20024;-79
2023/03/04 05:06:30;;;;;;;3.67;0.85;;;;;;;4.12;72.50;102460.38;5049628;28;20049;-79
2023/03/04 05:08:55;;;;;;;5.33;1.13;;;;;;;4.11;72.02;102456.94;5050500;28;20041;-79
2023/03/04 05:11:21;;;;;;;5.50;1.00;;;;;;;4.11;71.99;102462.09;5032357;28;20029;-78
2023/03/04 05:13:47;;;;;;;5.17;1.10;;;;;;;4.09;72.59;102464.63;5053851;28;20025;-79
2023/03/04 05:16:14;;;;;;;3.33;0.80;;;;;;;4.10;72.57;102461.19;5052542;28;20522;-78
2023/03/04 05:18:39;;;;;;;4.20;0.90;;;;;;;4.09;72.31;102458.59;5050578;28;20029;-78
2023/03/04 05:21:05;;;;;;;6.43;0.90;;;;;;;4.10;72.46;102466.34;5053142;28;20021;-78
2023/03/04 05:23:33;;;;;;;3.43;0.73;;;;;;;4.09;72.23;102462.06;5031706;28;20028;-78
2023/03/04 05:25:59;;;;;;;3.57;0.80;;;;;;;4.12;72.00;102455.22;5048927;28;20025;-78
2023/03/04 05:28:25;;;;;;;5.23;0.80;;;;;;;4.11;72.04;102459.50;5049249;28;20035;-79
2023/03/04 05:30:50;;;;;;;5.17;1.30;;;;;;;4.12;72.38;102452.66;5056117;28;20025;-78
2023/03/04 05:33:16;;;;;;;3.67;0.80;;;;;;;4.10;72.74;102456.06;5039152;28;20112;-78
2023/03/04 05:35:42;;;;;;;5.57;0.70;;;;;;;4.11;72.91;102456.94;5059271;28;20029;-78
2023/03/04 05:38:11;;;;;;;4.07;0.87;;;;;;;4.12;72.80;102457.81;5034508;28;20381;-78
2023/03/04 05:40:37;;;;;;;5.80;0.90;;;;;;;4.13;73.08;102459.53;5049201;28;20024;-78
2023/03/04 05:43:03;;;;;;;4.22;0.73;;;;;;;4.12;73.00;102463.84;5054134;28;20451;-78
2023/03/04 05:45:28;;;;;;;5.33;0.90;;;;;;;4.10;72.97;102456.06;5056720;28;20477;-78
2023/03/04 05:47:54;;;;;;;3.43;0.80;;;;;;;4.10;73.35;102460.34;5050578;28;20032;-79
2023/03/04 05:50:20;;;;;;;3.27;0.90;;;;;;;4.10;73.10;102463.78;5061888;28;20078;-79
2023/03/04 05:52:47;;;;;;;5.10;0.93;;;;;;;4.10;73.42;102466.34;5061892;28;20472;-78
2023/03/04 05:55:13;;;;;;;4.90;0.80;;;;;;;4.10;73.58;102471.50;5057858;28;20024;-78
2023/03/04 05:57:38;;;;;;;4.30;1.27;;;;;;;4.10;74.11;102476.66;5053726;28;20035;-78
2023/03/04 06:00:08;;;;;;;3.57;0.80;;;;;;;4.09;74.35;102464.63;5046819;28;20044;-79
2023/03/04 06:02:34;;;;;;;4.33;1.00;;;;;;;4.10;74.63;102471.50;5042831;28;20089;-78
2023/03/04 06:04:59;;;;;;;5.33;0.90;;;;;;;4.06;75.15;102471.38;5052136;28;20129;-79
2023/03/04 06:07:24;;;;;;;4.43;0.90;;;;;;;4.04;75.81;102471.34;5055942;28;20075;-79
2023/03/04 06:09:49;;;;;;;3.80;0.80;;;;;;;4.04;75.69;102468.78;5056274;28;20025;-79
2023/03/04 06:12:15;;;;;;;5.73;0.90;;;;;;;4.02;75.73;102473.00;5052739;28;20398;-79
2023/03/04 06:14:40;;;;;;;4.13;1.03;;;;;;;4.02;76.46;102472.13;5036088;28;20024;-79
2023/03/04 06:17:05;;;;;;;3.27;0.80;;;;;;;4.02;75.88;102473.00;5050379;28;20033;-79
2023/03/04 06:19:30;;;;;;;3.37;0.83;;;;;;;4.03;75.89;102469.59;5032619;28;20028;-79
2023/03/04 06:21:56;;;;;;;4.77;0.93;;;;;;;4.00;76.44;102474.66;5063792;28;20570;-79
2023/03/04 06:24:21;;;;;;;2.50;0.63;;;;;;;4.01;76.75;102476.41;5063902;28;20024;-79
2023/03/04 06:26:46;;;;;;;4.73;0.80;;;;;;;4.00;76.58;102477.25;5054580;28;20472;-79
2023/03/04 06:29:12;;;;;;;3.80;1.10;;;;;;;4.02;76.42;102482.44;5057139;28;20035;-79
2023/03/04 06:31:40;;;;;;;4.27;0.90;;;;;;;4.01;76.62;102479.00;5056355;28;20094;-79
2023/03/04 06:34:08;;;;;;;6.33;0.90;;;;;;;4.00;76.75;102486.69;5041846;28;20035;-79
2023/03/04 06:36:34;;;;;;;3.63;0.77;;;;;;;3.98;76.72;102478.91;5051415;28;20035;-79
2023/03/04 06:39:02;;;;;;;3.67;0.80;;;;;;;3.98;77.24;102488.34;5052676;28;20037;-79
2023/03/04 06:41:28;;;;;;;3.13;0.80;;;;;;;3.97;77.31;102492.59;5049977;28;20550;-79
2023/03/04 06:43:53;;;;;;;3.23;0.80;;;;;;;3.97;76.54;102490.03;5048587;28;20041;-79
2023/03/04 06:46:18;;;;;;;7.30;1.03;;;;;;;3.97;76.56;102489.16;5050581;28;20082;-79
2023/03/04 06:48:44;;;;;;;6.00;0.90;;;;;;;3.99;77.05;102492.66;5049269;28;20108;-78
2023/03/04 06:51:10;;;;;;;5.47;0.93;;;;;;;4.00;76.98;102489.25;5052929;28;20037;-79
2023/03/04 06:53:36;;;;;;;3.27;0.70;;;;;;;4.01;76.60;102489.28;5054036;28;20032;-79
2023/03/04 06:56:02;;;;;;;5.37;1.00;;;;;;;4.00;76.56;102492.69;5055518;28;20039;-78
2023/03/04 06:58:27;;;;;;;4.63;1.20;;;;;;;4.01;76.50;102494.44;5049535;28;20029;-78
2023/03/04 07:00:53;;;;;;;3.33;0.83;;;;;;;4.02;77.00;102488.47;5055566;28;20030;-78
2023/03/04 07:03:18;;;;;;;6.60;0.80;;;;;;;4.03;76.94;102494.47;5053389;28;20524;-79
2023/03/04 07:05:43;;;;;;;3.27;0.90;;;;;;;4.03;76.68;102492.78;5058484;28;20032;-79
2023/03/04 07:08:09;;;;;;;5.87;1.00;;;;;;;4.04;77.27;102497.09;5061852;28;20052;-79
2023/03/04 07:10:34;;;;;;;3.53;0.80;;;;;;;4.04;76.99;102496.22;5064377;28;20471;-79
2023/03/04 07:13:00;;;;;;;6.23;0.90;;;;;;;4.05;77.34;102496.28;5050787;28;20110;-79
2023/03/04 07:15:25;;;;;;;3.37;1.00;;;;;;;4.07;77.42;102496.31;5054124;28;20369;-79
2023/03/04 07:17:51;;;;;;;3.73;1.00;;;;;;;4.06;77.65;102495.44;5055267;28;20518;-79
2023/03/04 07:20:16;;;;;;;2.00;0.90;;;;;;;4.08;77.05;102504.09;5053795;28;20017;-79
2023/03/04 07:22:42;;;;;;;4.80;1.00;;;;;;;4.08;77.34;102498.94;5051920;28;20059;-79
2023/03/04 07:25:07;;;;;;;6.23;1.30;;;;;;;4.08;77.61;102498.94;5053880;28;20056;-79
2023/03/04 07:27:33;;;;;;;2.10;0.80;;;;;;;4.09;77.74;102499.81;5054443;28;20094;-78
2023/03/04 07:29:58;;;;;;;2.60;0.90;;;;;;;4.10;77.83;102507.56;5050180;28;20029;-79
2023/03/04 07:32:23;;;;;;;2.53;0.73;;;;;;;4.12;77.65;102511.88;5052716;28;20380;-79
2023/03/04 07:34:49;;;;;;;1.97;0.87;;;;;;;4.15;77.70;102509.41;5050926;28;20120;-78
2023/03/04 07:37:15;;;;;;;3.93;1.00;;;;;;;4.15;77.33;102509.41;5053937;28;20400;-79
2023/03/04 07:39:40;;;;;;;2.77;0.93;;;;;;;4.16;77.49;102512.03;5051693;28;20059;-79
2023/03/04 07:42:05;;;;;;;3.57;0.90;;;;;;;4.17;77.64;102513.78;5054641;28;20036;-79
2023/03/04 07:44:31;;;;;;;3.53;1.00;;;;;;;4.20;77.07;102513.00;5050308;28;20024;-79
2023/03/04 07:46:56;;;;;;;3.40;1.00;;;;;;;4.20;77.97;102520.72;5059273;28;20029;-79
2023/03/04 07:49:22;;;;;;;3.70;1.00;;;;;;;4.24;77.49;102525.13;5052245;28;20035;-79
2023/03/04 07:51:47;;;;;;;2.40;1.00;;;;;;;4.26;77.69;102523.47;5052428;28;20075;-79
2023/03/04 07:54:12;;;;;;;4.30;1.00;;;;;;;4.27;78.07;102530.34;5050788;28;20113;-79
2023/03/04 07:56:38;;;;;;;3.47;1.03;;;;;;;4.29;77.82;102528.69;5052190;28;20032;-79
2023/03/04 07:59:03;;;;;;;5.77;1.03;;;;;;;4.33;77.73;102529.66;5046986;28;20088;-79
2023/03/04 08:01:32;;;;;;;4.77;0.90;;;;;;;4.34;78.04;102532.28;5048702;28;20029;-79
2023/03/04 08:03:57;;;;;;;5.83;1.30;;;;;;;4.39;78.22;102532.41;5046253;28;20463;-79
2023/03/04 08:06:23;;;;;;;2.30;0.82;;;;;;;4.44;78.18;102532.53;5047203;28;20092;-79
2023/03/04 08:08:54;;;;;;;4.70;1.00;;;;;;;4.50;78.74;102527.53;5048251;28;20032;-78
2023/03/04 08:11:20;;;;;;;2.75;0.98;;;;;;;4.56;78.68;102527.72;5046697;28;20427;-78
2023/03/04 08:13:45;;;;;;;4.10;1.20;;;;;;;4.62;78.59;102527.84;5048325;28;20021;-78
2023/03/04 08:16:14;;;;;;;4.03;1.20;;;;;;;4.66;77.76;102529.69;5050016;28;20032;-78
2023/03/04 08:18:40;;;;;;;5.65;1.15;;;;;;;4.70;78.39;102530.63;5027364;28;20032;-78
2023/03/04 08:21:11;;;;;;;5.95;1.15;;;;;;;4.75;78.73;102533.34;5043306;28;20033;-79
2023/03/04 08:23:37;;;;;;;6.50;1.00;;;;;;;4.77;78.33;102536.84;5047119;28;20440;-79
2023/03/04 08:26:08;;;;;;;3.78;1.15;;;;;;;4.80;78.63;102531.75;5043115;28;20098;-79
2023/03/04 08:28:33;;;;;;;8.57;1.30;;;;;;;4.80;78.85;102534.31;5045547;28;20086;-79
2023/03/04 08:30:59;;;;;;;2.85;0.82;;;;;;;4.84;78.74;102538.72;5027542;28;20420;-79
2023/03/04 08:33:24;;;;;;;4.15;1.00;;;;;;;4.90;78.86;102538.91;5045126;28;20485;-79
2023/03/04 08:35:49;;;;;;;6.55;1.00;;;;;;;4.96;77.70;102528.72;5047642;28;20068;-79
2023/03/04 08:38:15;;;;;;;5.45;1.40;;;;;;;4.98;77.59;102539.09;5042263;28;20036;-78
2023/03/04 08:40:40;;;;;;;3.88;0.90;;;;;;;4.99;77.35;102533.94;5047893;28;20021;-79
2023/03/04 08:43:05;;;;;;;4.10;1.17;;;;;;;5.01;77.28;102529.72;5048277;28;20037;-78
2023/03/04 08:45:31;;;;;;;4.50;1.13;;;;;;;5.08;77.39;102540.19;5045106;28;20032;-78
2023/03/04 08:47:56;;;;;;;4.40;1.25;;;;;;;5.16;77.05;102541.22;5040370;28;20029;-77
2023/03/04 08:50:21;;;;;;;6.90;1.05;;;;;;;5.22;76.67;102543.09;5022154;28;20506;-78
2023/03/04 08:52:47;;;;;;;4.15;1.10;;;;;;;5.22;76.58;102537.91;5042687;28;20029;-78
2023/03/04 08:55:12;;;;;;;3.22;0.88;;;;;;;5.28;76.04;102540.66;5041409;28;20017;-77
2023/03/04 08:57:37;;;;;;;6.68;1.38;;;;;;;5.35;75.90;102539.09;5044046;28;20032;-77
2023/03/04 09:00:03;;;;;;;2.78;0.90;;;;;;;5.43;76.10;102540.16;5044581;28;20825;-77
2023/03/04 09:02:28;;;;;;;1.77;0.75;;;;;;;5.48;76.18;102533.38;5042809;28;20323;-77
2023/03/04 09:04:53;;;;;;;5.22;1.02;;;;;;;5.58;76.28;102530.19;5043900;28;20106;-78
2023/03/04 09:07:19;;;;;;;4.15;0.90;;;;;;;5.62;76.32;102533.69;5042692;28;20405;-77
2023/03/04 09:09:44;;;;;;;2.97;1.10;;;;;;;5.69;76.09;102532.13;5045236;28;20024;-77
2023/03/04 09:12:09;;;;;;;4.80;1.02;;;;;;;5.76;76.04;102529.69;5027090;28;20143;-77
2023/03/04 09:14:35;;;;;;;3.47;0.80;;;;;;;5.83;75.33;102525.53;5043007;28;20028;-77
2023/03/04 09:17:02;;;;;;;4.65;0.93;;;;;;;5.84;76.04;102527.28;5043114;28;20032;-77
2023/03/04 09:19:27;;;;;;;3.33;0.80;;;;;;;5.87;75.34;102518.75;5043679;28;20563;-77
2023/03/04 09:21:54;;;;;;;2.45;0.70;;;;;;;5.88;75.26;102520.50;5040458;28;20079;-78
2023/03/04 09:24:20;;;;;;;2.13;0.70;;;;;;;5.94;75.33;102518.00;5042130;28;20986;-78
2023/03/04 09:26:49;;;;;;;3.80;0.70;;;;;;;5.97;75.06;102512.06;5042773;28;20127;-76
2023/03/04 09:29:14;;;;;;;3.22;0.93;;;;;;;6.01;75.30;102519.94;5043358;28;20033;-77
2023/03/04 09:31:40;;;;;;;4.53;1.10;;;;;;;6.04;73.83;102509.66;5046257;28;20029;-77
2023/03/04 09:34:05;;;;;;;3.55;0.82;;;;;;;6.08;74.67;102508.00;5028475;28;20064;-77
2023/03/04 09:36:30;;;;;;;1.77;0.80;;;;;;;6.13;74.41;102508.97;5023918;28;20182;-77
2023/03/04 09:38:59;;;;;;;4.05;1.00;;;;;;;6.06;74.72;102512.25;5046655;28;20579;-78
2023/03/04 09:41:35;;;;;;;4.35;1.13;;;;;;;6.03;74.20;102505.34;5046251;28;20029;-79
2023/03/04 09:44:06;;;;;;;8.05;1.30;;;;;;;6.02;74.52;102502.69;5043760;28;20037;-78
2023/03/04 09:46:37;;;;;;;5.35;1.10;;;;;;;6.05;73.93;102495.91;5043299;28;20036;-78
2023/03/04 09:49:03;;;;;;;4.80;1.10;;;;;;;6.18;74.35;102507.31;5045244;28;20495;-78
2023/03/04 09:51:34;;;;;;;4.93;0.90;;;;;;;6.27;73.67;102498.03;5042734;28;20653;-78
2023/03/04 09:54:20;;;;;;;4.45;1.10;;;;;;;6.29;74.54;102510.13;5046244;28;20075;-78
2023/03/04 09:56:45;;;;;;;3.20;0.80;;;;;;;6.27;74.09;102505.78;5045649;28;20079;-78
2023/03/04 09:59:21;;;;;;;3.47;1.10;;;;;;;6.31;74.67;102503.28;5045318;28;20036;-78
2023/03/04 10:01:52;;;;;;;2.65;1.08;;;;;;;6.32;74.55;102504.16;5041051;28;20379;-78
2023/03/04 10:04:25;;;;;;;2.17;0.93;;;;;;;6.32;74.17;102506.75;5046235;28;20029;-77
2023/03/04 10:06:53;;;;;;;2.83;1.00;;;;;;;6.33;74.52;102511.03;5044194;28;20063;-78
2023/03/04 10:09:55;;;;;;;1.98;0.90;;;;;;;6.37;74.26;102507.69;5043342;28;20426;-78
2023/03/04 10:12:24;;;;;;;2.08;0.90;;;;;;;6.40;74.35;102507.75;4986349;28;20610;-78
2023/03/04 10:15:31;;;;;;;3.33;0.93;;;;;;;6.46;74.50;102494.94;5045731;28;20036;-78
2023/03/04 10:18:05;;;;;;;5.45;0.95;;;;;;;6.48;74.43;102497.53;5045936;28;20052;-79
2023/03/04 10:20:47;;;;;;;2.72;1.00;;;;;;;6.47;74.35;102494.09;5044194;28;20476;-78
2023/03/04 10:23:21;;;;;;;2.85;1.05;;;;;;;6.50;74.44;102499.31;5042714;28;20024;-79
2023/03/04 10:25:50;;;;;;;2.50;1.00;;;;;;;6.52;74.42;102495.03;5043318;28;20024;-79
2023/03/04 10:28:18;;;;;;;3.53;1.17;;;;;;;6.49;73.11;102489.81;5027594;28;20032;-79
2023/03/04 10:31:00;;;;;;;4.28;1.20;;;;;;;6.47;73.50;102493.22;5043871;28;20037;-79
2023/03/04 10:33:29;;;;;;;5.05;1.17;;;;;;;6.41;72.79;102501.72;5044330;28;20094;-79
2023/03/04 10:36:02;;;;;;;5.20;1.08;;;;;;;6.33;73.28;102498.13;5044640;28;20104;-79
2023/03/04 10:38:31;;;;;;;3.97;1.05;;;;;;;6.29;73.34;102493.75;5046209;28;20043;-78
2023/03/04 10:40:57;;;;;;;1.85;0.82;;;;;;;6.28;73.83;102497.19;5043226;28;20025;-78
2023/03/04 10:43:23;;;;;;;2.40;0.82;;;;;;;6.25;74.08;102486.78;5045147;28;20032;-78
2023/03/04 10:45:54;;;;;;;2.28;1.05;;;;;;;6.29;74.27;102488.59;5026908;28;20040;-78
2023/03/04 10:48:23;;;;;;;5.55;1.23;;;;;;;6.30;74.59;102490.34;5040785;28;20028;-78
2023/03/04 10:50:49;;;;;;;2.70;1.00;;;;;;;6.35;74.06;102493.84;5038729;28;20098;-79
2023/03/04 10:53:27;;;;;;;2.97;0.95;;;;;;;6.41;74.81;102483.63;5041517;28;20056;-79
2023/03/04 10:55:52;;;;;;;3.28;1.00;;;;;;;6.57;75.51;102482.22;5042466;28;20116;-78
2023/03/04 10:58:20;;;;;;;4.57;1.02;;;;;;;6.78;75.39;102486.88;5026881;28;20115;-78
2023/03/04 11:00:59;;;;;;;4.07;1.00;;;;;;;6.92;73.77;102475.88;5040784;28;20028;-78
2023/03/04 11:03:27;;;;;;;2.17;0.80;;;;;;;7.01;72.48;102480.31;5037114;28;20094;-78
2023/03/04 11:06:12;;;;;;;3.05;1.10;;;;;;;7.02;73.58;102469.97;5040986;28;20075;-78
2023/03/04 11:08:40;;;;;;;1.77;0.93;;;;;;;7.00;73.18;102469.13;5040678;28;20555;-78
2023/03/04 11:11:24;;;;;;;2.58;1.00;;;;;;;7.00;73.59;102466.53;5042512;28;20815;-79
2023/03/04 11:13:54;;;;;;;1.20;0.80;;;;;;;7.05;74.36;102459.69;5041511;28;20087;-78
2023/03/04 11:16:29;;;;;;;2.17;0.90;;;;;;;7.13;73.44;102454.63;5043486;28;20029;-78
2023/03/04 11:19:02;;;;;;;2.58;0.77;;;;;;;7.14;73.22;102452.06;5042014;28;20499;-77
2023/03/04 11:21:30;;;;;;;1.75;0.60;;;;;;;7.11;72.89;102449.44;5026062;28;20388;-77
2023/03/04 11:23:59;;;;;;;3.05;0.95;;;;;;;7.14;74.29;102451.19;5042576;28;20036;-77
2023/03/04 11:26:38;;;;;;;2.08;0.90;;;;;;;7.19;73.72;102448.66;5040387;28;20033;-78
2023/03/04 11:29:25;;;;;;;1.17;0.80;;;;;;;7.18;73.44;102446.91;5041039;28;20033;-78
2023/03/04 11:31:59;;;;;;;3.90;0.93;;;;;;;7.23;74.47;102445.25;5043688;28;20118;-77
2023/03/04 11:34:39;;;;;;;1.20;0.70;;;;;;;7.39;74.60;102436.84;5042103;28;20210;-77